sensor_id;sensor_type;location;lat;lon;timestamp;pressure;altitude;pressure_sealevel;temperature;humidity
66681;BME280;53575;51.366;12.350;2023-05-22T00:02:03;100253.50;;;17.64;86.67
66681;BME280;53575;51.366;12.350;2023-05-22T00:04:29;100255.41;;;17.61;86.97
66681;BME280;53575;51.366;12.350;2023-05-22T00:06:55;100252.81;;;17.59;86.81
66681;BME280;53575;51.366;12.350;2023-05-22T00:09:23;100252.81;;;17.59;87.09
66681;BME280;53575;51.366;12.350;2023-05-22T00:11:49;100252.00;;;17.57;87.04
66681;BME280;53575;51.366;12.350;2023-05-22T00:14:15;100251.25;;;17.53;87.37
66681;BME280;53575;51.366;12.350;2023-05-22T00:16:40;100248.78;;;17.49;87.47
66681;BME280;53575;51.366;12.350;2023-05-22T00:19:06;100248.81;;;17.47;87.39
66681;BME280;53575;51.366;12.350;2023-05-22T00:21:43;100251.53;;;17.46;87.52
66681;BME280;53575;51.366;12.350;2023-05-22T00:24:08;100253.41;;;17.42;87.65
66681;BME280;53575;51.366;12.350;2023-05-22T00:26:34;100252.75;;;17.36;87.60
66681;BME280;53575;51.366;12.350;2023-05-22T00:29:00;100250.25;;;17.33;87.47
66681;BME280;53575;51.366;12.350;2023-05-22T00:31:25;100247.63;;;17.31;87.41
66681;BME280;53575;51.366;12.350;2023-05-22T00:33:50;100243.47;;;17.24;87.89
66681;BME280;53575;51.366;12.350;2023-05-22T00:36:16;100234.75;;;17.22;87.90
66681;BME280;53575;51.366;12.350;2023-05-22T00:38:42;100234.03;;;17.17;88.18
66681;BME280;53575;51.366;12.350;2023-05-22T00:41:08;100241.25;;;17.12;88.28
66681;BME280;53575;51.366;12.350;2023-05-22T00:43:34;100240.50;;;17.08;88.63
66681;BME280;53575;51.366;12.350;2023-05-22T00:45:59;100241.59;;;17.02;88.49
66681;BME280;53575;51.366;12.350;2023-05-22T00:48:25;100236.69;;;17.17;87.96
66681;BME280;53575;51.366;12.350;2023-05-22T00:50:52;100238.09;;;17.02;88.39
66681;BME280;53575;51.366;12.350;2023-05-22T00:53:19;100238.19;;;16.99;88.97
66681;BME280;53575;51.366;12.350;2023-05-22T00:55:45;100228.53;;;16.98;89.06
66681;BME280;53575;51.366;12.350;2023-05-22T00:58:14;100234.03;;;16.92;89.63
66681;BME280;53575;51.366;12.350;2023-05-22T01:00:41;100228.59;;;16.96;89.20
66681;BME280;53575;51.366;12.350;2023-05-22T01:03:08;100231.81;;;17.04;88.03
66681;BME280;53575;51.366;12.350;2023-05-22T01:05:38;100229.00;;;17.11;87.67
66681;BME280;53575;51.366;12.350;2023-05-22T01:08:05;100225.94;;;16.96;88.28
66681;BME280;53575;51.366;12.350;2023-05-22T01:10:35;100223.50;;;16.90;88.71
66681;BME280;53575;51.366;12.350;2023-05-22T01:13:08;100222.50;;;16.94;88.22
66681;BME280;53575;51.366;12.350;2023-05-22T01:15:45;100228.41;;;17.01;87.59
66681;BME280;53575;51.366;12.350;2023-05-22T01:18:21;100229.50;;;16.95;87.55
66681;BME280;53575;51.366;12.350;2023-05-22T01:31:47;100228.78;;;16.64;89.55
66681;BME280;53575;51.366;12.350;2023-05-22T01:34:15;100219.66;;;16.74;88.43
66681;BME280;53575;51.366;12.350;2023-05-22T01:36:44;100223.34;;;16.68;89.22
66681;BME280;53575;51.366;12.350;2023-05-22T01:39:11;100231.41;;;16.64;88.71
66681;BME280;53575;51.366;12.350;2023-05-22T01:41:37;100227.53;;;16.75;88.11
66681;BME280;53575;51.366;12.350;2023-05-22T01:44:04;100226.88;;;16.67;88.28
66681;BME280;53575;51.366;12.350;2023-05-22T01:46:30;100232.31;;;16.63;88.34
66681;BME280;53575;51.366;12.350;2023-05-22T01:48:56;100233.41;;;16.55;88.95
66681;BME280;53575;51.366;12.350;2023-05-22T01:51:51;100242.16;;;16.57;88.50
66681;BME280;53575;51.366;12.350;2023-05-22T01:54:30;100233.63;;;16.49;89.11
66681;BME280;53575;51.366;12.350;2023-05-22T02:02:14;100243.59;;;16.40;89.94
66681;BME280;53575;51.366;12.350;2023-05-22T02:04:45;100243.81;;;16.32;89.90
66681;BME280;53575;51.366;12.350;2023-05-22T02:07:11;100245.44;;;16.36;89.83
66681;BME280;53575;51.366;12.350;2023-05-22T02:09:39;100240.25;;;16.33;89.83
66681;BME280;53575;51.366;12.350;2023-05-22T02:12:05;100235.13;;;16.30;89.68
66681;BME280;53575;51.366;12.350;2023-05-22T02:14:32;100240.47;;;16.27;89.97
66681;BME280;53575;51.366;12.350;2023-05-22T02:16:58;100238.78;;;16.24;90.00
66681;BME280;53575;51.366;12.350;2023-05-22T02:19:26;100239.00;;;16.18;90.04
66681;BME280;53575;51.366;12.350;2023-05-22T02:21:52;100235.66;;;16.12;90.68
66681;BME280;53575;51.366;12.350;2023-05-22T02:24:18;100238.25;;;16.13;90.48
66681;BME280;53575;51.366;12.350;2023-05-22T02:26:44;100238.31;;;16.12;90.45
66681;BME280;53575;51.366;12.350;2023-05-22T02:29:12;100235.69;;;16.10;90.36
66681;BME280;53575;51.366;12.350;2023-05-22T02:31:37;100238.69;;;15.99;90.70
66681;BME280;53575;51.366;12.350;2023-05-22T02:34:03;100228.22;;;15.96;90.69
66681;BME280;53575;51.366;12.350;2023-05-22T02:36:30;100224.53;;;16.02;90.19
66681;BME280;53575;51.366;12.350;2023-05-22T02:38:57;100225.34;;;16.04;89.88
66681;BME280;53575;51.366;12.350;2023-05-22T02:41:23;100228.69;;;16.11;89.40
66681;BME280;53575;51.366;12.350;2023-05-22T02:43:48;100230.31;;;16.15;88.97
66681;BME280;53575;51.366;12.350;2023-05-22T02:46:14;100224.50;;;16.03;89.15
66681;BME280;53575;51.366;12.350;2023-05-22T02:48:39;100221.09;;;15.98;89.49
66681;BME280;53575;51.366;12.350;2023-05-22T02:51:04;100217.69;;;15.96;89.61
66681;BME280;53575;51.366;12.350;2023-05-22T02:53:30;100222.25;;;15.90;90.08
66681;BME280;53575;51.366;12.350;2023-05-22T02:55:57;100223.25;;;15.86;90.34
66681;BME280;53575;51.366;12.350;2023-05-22T02:58:23;100217.19;;;15.83;90.43
66681;BME280;53575;51.366;12.350;2023-05-22T03:00:49;100213.63;;;15.84;90.37
66681;BME280;53575;51.366;12.350;2023-05-22T03:03:17;100210.16;;;15.82;90.29
66681;BME280;53575;51.366;12.350;2023-05-22T03:05:42;100208.44;;;15.81;89.72
66681;BME280;53575;51.366;12.350;2023-05-22T03:08:08;100203.47;;;15.72;90.05
66681;BME280;53575;51.366;12.350;2023-05-22T03:10:34;100206.97;;;15.71;90.31
66681;BME280;53575;51.366;12.350;2023-05-22T03:12:59;100206.13;;;15.71;90.23
66681;BME280;53575;51.366;12.350;2023-05-22T03:15:25;100199.13;;;15.70;89.99
66681;BME280;53575;51.366;12.350;2023-05-22T03:17:51;100199.94;;;15.72;89.95
66681;BME280;53575;51.366;12.350;2023-05-22T03:20:16;100201.75;;;15.70;89.67
66681;BME280;53575;51.366;12.350;2023-05-22T03:22:43;100196.44;;;15.71;89.45
66681;BME280;53575;51.366;12.350;2023-05-22T03:25:08;100200.63;;;15.78;88.48
66681;BME280;53575;51.366;12.350;2023-05-22T03:27:34;100195.31;;;15.80;88.14
66681;BME280;53575;51.366;12.350;2023-05-22T03:30:01;100204.88;;;15.84;87.46
66681;BME280;53575;51.366;12.350;2023-05-22T03:32:27;100207.63;;;15.79;87.80
66681;BME280;53575;51.366;12.350;2023-05-22T03:34:52;100205.75;;;15.83;87.33
66681;BME280;53575;51.366;12.350;2023-05-22T03:37:17;100204.91;;;15.82;87.09
66681;BME280;53575;51.366;12.350;2023-05-22T03:39:43;100202.41;;;15.78;87.09
66681;BME280;53575;51.366;12.350;2023-05-22T03:42:08;100208.63;;;15.75;87.56
66681;BME280;53575;51.366;12.350;2023-05-22T03:44:34;100210.25;;;15.79;87.91
66681;BME280;53575;51.366;12.350;2023-05-22T03:47:00;100209.44;;;15.77;87.87
66681;BME280;53575;51.366;12.350;2023-05-22T03:49:25;100205.66;;;15.86;87.04
66681;BME280;53575;51.366;12.350;2023-05-22T03:51:50;100204.00;;;15.83;86.66
66681;BME280;53575;51.366;12.350;2023-05-22T03:54:16;100202.16;;;15.86;87.13
66681;BME280;53575;51.366;12.350;2023-05-22T03:56:42;100208.22;;;15.89;86.83
66681;BME280;53575;51.366;12.350;2023-05-22T03:59:07;100199.59;;;15.84;86.32
66681;BME280;53575;51.366;12.350;2023-05-22T04:01:33;100207.16;;;15.95;85.60
66681;BME280;53575;51.366;12.350;2023-05-22T04:03:58;100208.22;;;15.89;86.26
66681;BME280;53575;51.366;12.350;2023-05-22T04:06:24;100203.66;;;15.94;85.99
66681;BME280;53575;51.366;12.350;2023-05-22T04:08:49;100202.72;;;15.97;86.01
66681;BME280;53575;51.366;12.350;2023-05-22T04:11:15;100202.34;;;16.09;85.08
66681;BME280;53575;51.366;12.350;2023-05-22T04:13:43;100200.38;;;16.16;84.54
66681;BME280;53575;51.366;12.350;2023-05-22T04:16:09;100200.06;;;16.26;84.10
66681;BME280;53575;51.366;12.350;2023-05-22T04:18:35;100201.19;;;16.18;84.37
66681;BME280;53575;51.366;12.350;2023-05-22T04:21:01;100191.41;;;15.93;85.40
66681;BME280;53575;51.366;12.350;2023-05-22T04:23:27;100195.19;;;15.84;85.59
66681;BME280;53575;51.366;12.350;2023-05-22T04:25:52;100200.41;;;15.86;85.79
66681;BME280;53575;51.366;12.350;2023-05-22T04:28:17;100200.94;;;15.97;85.63
66681;BME280;53575;51.366;12.350;2023-05-22T04:30:49;100204.53;;;15.95;85.45
66681;BME280;53575;51.366;12.350;2023-05-22T04:33:15;100198.50;;;15.91;85.58
66681;BME280;53575;51.366;12.350;2023-05-22T04:35:42;100207.28;;;15.92;85.82
66681;BME280;53575;51.366;12.350;2023-05-22T04:38:08;100206.19;;;15.99;85.98
66681;BME280;53575;51.366;12.350;2023-05-22T04:40:34;100208.44;;;15.81;86.24
66681;BME280;53575;51.366;12.350;2023-05-22T04:43:02;100209.25;;;16.13;85.04
66681;BME280;53575;51.366;12.350;2023-05-22T04:45:28;100209.25;;;16.13;84.77
66681;BME280;53575;51.366;12.350;2023-05-22T04:47:54;100203.88;;;16.16;84.88
66681;BME280;53575;51.366;12.350;2023-05-22T04:50:20;100206.22;;;16.25;85.00
66681;BME280;53575;51.366;12.350;2023-05-22T04:52:46;100210.75;;;16.22;86.11
66681;BME280;53575;51.366;12.350;2023-05-22T04:55:12;100205.25;;;16.29;85.74
66681;BME280;53575;51.366;12.350;2023-05-22T04:57:39;100204.22;;;16.33;84.58
66681;BME280;53575;51.366;12.350;2023-05-22T05:00:05;100205.66;;;16.44;84.67
66681;BME280;53575;51.366;12.350;2023-05-22T05:02:31;100203.16;;;16.39;85.14
66681;BME280;53575;51.366;12.350;2023-05-22T05:04:57;100195.31;;;16.38;84.32
66681;BME280;53575;51.366;12.350;2023-05-22T05:07:22;100203.88;;;16.44;84.99
66681;BME280;53575;51.366;12.350;2023-05-22T05:09:49;100199.34;;;16.49;84.53
66681;BME280;53575;51.366;12.350;2023-05-22T05:12:15;100200.03;;;16.54;84.64
66681;BME280;53575;51.366;12.350;2023-05-22T05:14:40;100194.59;;;16.59;84.22
66681;BME280;53575;51.366;12.350;2023-05-22T05:17:06;100190.81;;;16.68;83.34
66681;BME280;53575;51.366;12.350;2023-05-22T05:19:31;100191.69;;;16.68;84.52
66681;BME280;53575;51.366;12.350;2023-05-22T05:21:58;100194.94;;;16.76;83.54
66681;BME280;53575;51.366;12.350;2023-05-22T05:24:24;100192.25;;;16.78;83.91
66681;BME280;53575;51.366;12.350;2023-05-22T05:26:50;100188.31;;;16.90;82.44
66681;BME280;53575;51.366;12.350;2023-05-22T05:29:15;100204.81;;;16.96;83.37
66681;BME280;53575;51.366;12.350;2023-05-22T05:31:40;100191.31;;;17.05;82.59
66681;BME280;53575;51.366;12.350;2023-05-22T05:34:06;100198.22;;;17.10;81.79
66681;BME280;53575;51.366;12.350;2023-05-22T05:36:31;100191.69;;;17.20;81.76
66681;BME280;53575;51.366;12.350;2023-05-22T05:38:58;100192.41;;;17.25;81.80
66681;BME280;53575;51.366;12.350;2023-05-22T05:41:24;100196.50;;;17.34;81.39
66681;BME280;53575;51.366;12.350;2023-05-22T05:43:50;100203.22;;;17.42;81.16
66681;BME280;53575;51.366;12.350;2023-05-22T05:46:17;100202.06;;;17.49;79.95
66681;BME280;53575;51.366;12.350;2023-05-22T05:48:42;100206.25;;;17.55;80.39
66681;BME280;53575;51.366;12.350;2023-05-22T05:51:08;100205.09;;;17.64;80.35
66681;BME280;53575;51.366;12.350;2023-05-22T05:53:33;100207.63;;;17.67;80.45
66681;BME280;53575;51.366;12.350;2023-05-22T05:56:01;100207.19;;;17.79;79.45
66681;BME280;53575;51.366;12.350;2023-05-22T05:58:27;100197.19;;;17.87;79.65
66681;BME280;53575;51.366;12.350;2023-05-22T06:00:52;100207.66;;;17.90;79.46
66681;BME280;53575;51.366;12.350;2023-05-22T06:03:18;100208.97;;;18.02;79.03
66681;BME280;53575;51.366;12.350;2023-05-22T06:05:43;100206.88;;;18.10;78.64
66681;BME280;53575;51.366;12.350;2023-05-22T06:08:10;100213.56;;;18.19;78.25
66681;BME280;53575;51.366;12.350;2023-05-22T06:10:36;100203.56;;;18.27;77.56
66681;BME280;53575;51.366;12.350;2023-05-22T06:13:01;100209.41;;;18.35;78.32
66681;BME280;53575;51.366;12.350;2023-05-22T06:15:27;100205.66;;;18.41;78.18
66681;BME280;53575;51.366;12.350;2023-05-22T06:17:53;100209.66;;;18.51;77.52
66681;BME280;53575;51.366;12.350;2023-05-22T06:20:18;100201.09;;;18.66;75.95
66681;BME280;53575;51.366;12.350;2023-05-22T06:22:44;100203.38;;;18.75;75.72
66681;BME280;53575;51.366;12.350;2023-05-22T06:25:09;100204.88;;;18.83;75.90
66681;BME280;53575;51.366;12.350;2023-05-22T06:27:35;100198.38;;;18.90;76.16
66681;BME280;53575;51.366;12.350;2023-05-22T06:30:01;100198.84;;;18.99;76.07
66681;BME280;53575;51.366;12.350;2023-05-22T06:32:26;100195.00;;;19.07;75.71
66681;BME280;53575;51.366;12.350;2023-05-22T06:34:52;100186.41;;;19.22;75.52
66681;BME280;53575;51.366;12.350;2023-05-22T06:37:18;100192.81;;;19.37;76.02
66681;BME280;53575;51.366;12.350;2023-05-22T06:39:43;100188.09;;;19.43;74.62
66681;BME280;53575;51.366;12.350;2023-05-22T06:42:09;100180.53;;;19.55;73.27
66681;BME280;53575;51.366;12.350;2023-05-22T06:44:34;100185.44;;;19.64;73.49
66681;BME280;53575;51.366;12.350;2023-05-22T06:47:00;100178.72;;;19.76;72.50
66681;BME280;53575;51.366;12.350;2023-05-22T06:49:25;100176.78;;;19.79;73.17
66681;BME280;53575;51.366;12.350;2023-05-22T06:51:50;100182.66;;;19.86;73.17
66681;BME280;53575;51.366;12.350;2023-05-22T06:54:16;100185.81;;;19.94;73.60
66681;BME280;53575;51.366;12.350;2023-05-22T06:56:44;100186.25;;;20.04;72.77
66681;BME280;53575;51.366;12.350;2023-05-22T06:59:10;100184.31;;;20.07;71.47
66681;BME280;53575;51.366;12.350;2023-05-22T07:01:38;100187.59;;;20.12;71.92
66681;BME280;53575;51.366;12.350;2023-05-22T07:04:04;100177.41;;;20.22;71.67
66681;BME280;53575;51.366;12.350;2023-05-22T07:06:30;100184.94;;;20.31;71.58
66681;BME280;53575;51.366;12.350;2023-05-22T07:08:58;100187.94;;;20.42;70.91
66681;BME280;53575;51.366;12.350;2023-05-22T07:11:24;100181.25;;;20.53;70.81
66681;BME280;53575;51.366;12.350;2023-05-22T07:13:50;100181.75;;;20.61;71.05
66681;BME280;53575;51.366;12.350;2023-05-22T07:16:15;100183.94;;;20.70;69.77
66681;BME280;53575;51.366;12.350;2023-05-22T07:18:41;100182.84;;;20.74;69.96
66681;BME280;53575;51.366;12.350;2023-05-22T07:21:06;100177.44;;;20.76;69.86
66681;BME280;53575;51.366;12.350;2023-05-22T07:23:32;100180.50;;;20.85;69.71
66681;BME280;53575;51.366;12.350;2023-05-22T07:25:58;100186.66;;;20.86;69.78
66681;BME280;53575;51.366;12.350;2023-05-22T07:28:23;100181.28;;;20.87;68.44
66681;BME280;53575;51.366;12.350;2023-05-22T07:30:49;100179.50;;;20.88;70.21
66681;BME280;53575;51.366;12.350;2023-05-22T07:33:14;100180.03;;;20.94;68.92
66681;BME280;53575;51.366;12.350;2023-05-22T07:35:40;100177.47;;;20.93;69.11
66681;BME280;53575;51.366;12.350;2023-05-22T07:38:06;100174.72;;;20.94;69.03
66681;BME280;53575;51.366;12.350;2023-05-22T07:40:31;100180.19;;;20.91;69.32
66681;BME280;53575;51.366;12.350;2023-05-22T07:42:57;100182.22;;;21.04;67.88
66681;BME280;53575;51.366;12.350;2023-05-22T07:45:22;100180.19;;;21.09;68.50
66681;BME280;53575;51.366;12.350;2023-05-22T07:47:48;100179.78;;;21.16;68.67
66681;BME280;53575;51.366;12.350;2023-05-22T07:50:13;100172.34;;;21.23;68.17
66681;BME280;53575;51.366;12.350;2023-05-22T07:52:45;100173.66;;;21.32;69.16
66681;BME280;53575;51.366;12.350;2023-05-22T07:55:10;100177.84;;;21.37;67.93
66681;BME280;53575;51.366;12.350;2023-05-22T07:57:37;100172.41;;;21.56;67.19
66681;BME280;53575;51.366;12.350;2023-05-22T08:00:03;100179.97;;;21.64;67.32
66681;BME280;53575;51.366;12.350;2023-05-22T08:02:39;100176.09;;;21.70;67.19
66681;BME280;53575;51.366;12.350;2023-05-22T08:05:05;100171.91;;;21.81;66.74
66681;BME280;53575;51.366;12.350;2023-05-22T08:07:31;100176.47;;;21.95;65.41
66681;BME280;53575;51.366;12.350;2023-05-22T08:10:02;100179.47;;;22.05;64.74
66681;BME280;53575;51.366;12.350;2023-05-22T08:12:28;100180.63;;;22.17;64.25
66681;BME280;53575;51.366;12.350;2023-05-22T08:14:54;100180.19;;;22.24;63.29
66681;BME280;53575;51.366;12.350;2023-05-22T08:17:19;100183.09;;;22.35;62.64
66681;BME280;53575;51.366;12.350;2023-05-22T08:19:44;100183.88;;;22.37;62.19
66681;BME280;53575;51.366;12.350;2023-05-22T08:22:10;100174.00;;;22.39;62.03
66681;BME280;53575;51.366;12.350;2023-05-22T08:24:35;100177.78;;;22.51;62.63
66681;BME280;53575;51.366;12.350;2023-05-22T08:27:01;100175.69;;;22.56;60.71
66681;BME280;53575;51.366;12.350;2023-05-22T08:29:27;100168.38;;;22.60;61.53
66681;BME280;53575;51.366;12.350;2023-05-22T08:31:52;100172.31;;;22.69;61.18
66681;BME280;53575;51.366;12.350;2023-05-22T08:34:21;100173.97;;;22.85;60.96
66681;BME280;53575;51.366;12.350;2023-05-22T08:36:46;100162.06;;;23.07;59.54
66681;BME280;53575;51.366;12.350;2023-05-22T08:39:13;100162.66;;;23.26;59.26
66681;BME280;53575;51.366;12.350;2023-05-22T08:41:38;100159.16;;;23.40;58.81
66681;BME280;53575;51.366;12.350;2023-05-22T08:44:04;100162.47;;;23.58;57.27
66681;BME280;53575;51.366;12.350;2023-05-22T08:46:31;100160.69;;;23.73;57.08
66681;BME280;53575;51.366;12.350;2023-05-22T08:48:57;100154.69;;;23.83;56.40
66681;BME280;53575;51.366;12.350;2023-05-22T08:51:32;100158.06;;;24.00;56.78
66681;BME280;53575;51.366;12.350;2023-05-22T08:53:59;100159.56;;;24.18;54.46
66681;BME280;53575;51.366;12.350;2023-05-22T08:56:25;100146.16;;;24.32;54.13
66681;BME280;53575;51.366;12.350;2023-05-22T08:58:52;100146.69;;;24.38;54.89
66681;BME280;53575;51.366;12.350;2023-05-22T09:01:18;100137.94;;;24.36;56.27
66681;BME280;53575;51.366;12.350;2023-05-22T09:03:45;100137.03;;;24.49;55.58
66681;BME280;53575;51.366;12.350;2023-05-22T09:06:15;100129.16;;;24.61;54.80
66681;BME280;53575;51.366;12.350;2023-05-22T09:08:41;100125.56;;;24.74;52.24
66681;BME280;53575;51.366;12.350;2023-05-22T09:11:08;100131.16;;;24.84;51.37
66681;BME280;53575;51.366;12.350;2023-05-22T09:13:37;100130.41;;;24.95;50.09
66681;BME280;53575;51.366;12.350;2023-05-22T09:16:10;100124.97;;;25.09;48.92
66681;BME280;53575;51.366;12.350;2023-05-22T09:18:37;100124.78;;;25.25;48.46
66681;BME280;53575;51.366;12.350;2023-05-22T09:21:03;100128.53;;;25.35;49.68
66681;BME280;53575;51.366;12.350;2023-05-22T09:23:29;100117.50;;;25.40;47.58
66681;BME280;53575;51.366;12.350;2023-05-22T09:25:56;100116.22;;;25.45;46.89
66681;BME280;53575;51.366;12.350;2023-05-22T09:28:22;100110.63;;;25.61;45.41
66681;BME280;53575;51.366;12.350;2023-05-22T09:30:49;100113.25;;;25.74;44.53
66681;BME280;53575;51.366;12.350;2023-05-22T09:33:15;100110.81;;;25.84;45.86
66681;BME280;53575;51.366;12.350;2023-05-22T09:35:41;100111.19;;;25.90;44.13
66681;BME280;53575;51.366;12.350;2023-05-22T09:38:11;100120.31;;;25.88;43.73
66681;BME280;53575;51.366;12.350;2023-05-22T09:40:38;100118.09;;;25.82;44.61
66681;BME280;53575;51.366;12.350;2023-05-22T09:43:10;100119.69;;;25.84;44.23
66681;BME280;53575;51.366;12.350;2023-05-22T09:45:37;100116.38;;;25.81;45.55
66681;BME280;53575;51.366;12.350;2023-05-22T09:48:08;100112.00;;;25.80;45.26
66681;BME280;53575;51.366;12.350;2023-05-22T09:50:35;100121.91;;;25.77;46.04
66681;BME280;53575;51.366;12.350;2023-05-22T09:53:01;100122.13;;;25.74;44.29
66681;BME280;53575;51.366;12.350;2023-05-22T09:55:28;100121.16;;;25.75;43.54
66681;BME280;53575;51.366;12.350;2023-05-22T09:57:54;100116.91;;;25.60;44.60
66681;BME280;53575;51.366;12.350;2023-05-22T10:00:21;100115.44;;;25.56;44.70
66681;BME280;53575;51.366;12.350;2023-05-22T10:03:00;100122.22;;;25.49;45.67
66681;BME280;53575;51.366;12.350;2023-05-22T10:05:30;100114.03;;;25.63;44.56
66681;BME280;53575;51.366;12.350;2023-05-22T10:08:02;100116.91;;;25.73;45.30
66681;BME280;53575;51.366;12.350;2023-05-22T10:10:29;100102.66;;;25.85;44.40
66681;BME280;53575;51.366;12.350;2023-05-22T10:13:03;100106.94;;;25.88;43.61
66681;BME280;53575;51.366;12.350;2023-05-22T10:15:30;100093.78;;;26.09;43.65
66681;BME280;53575;51.366;12.350;2023-05-22T10:17:57;100091.16;;;26.20;42.78
66681;BME280;53575;51.366;12.350;2023-05-22T10:20:23;100093.84;;;26.20;42.00
66681;BME280;53575;51.366;12.350;2023-05-22T10:22:50;100098.06;;;26.11;41.98
66681;BME280;53575;51.366;12.350;2023-05-22T10:25:17;100088.38;;;26.21;41.98
66681;BME280;53575;51.366;12.350;2023-05-22T10:27:43;100087.22;;;26.37;43.43
66681;BME280;53575;51.366;12.350;2023-05-22T10:32:59;100084.13;;;26.54;44.38
66681;BME280;53575;51.366;12.350;2023-05-22T10:40:47;100085.22;;;26.52;42.12
66681;BME280;53575;51.366;12.350;2023-05-22T10:43:13;100087.78;;;26.53;43.36
66681;BME280;53575;51.366;12.350;2023-05-22T10:45:38;100077.38;;;26.72;42.08
66681;BME280;53575;51.366;12.350;2023-05-22T10:48:10;100080.31;;;26.92;42.14
66681;BME280;53575;51.366;12.350;2023-05-22T10:50:37;100073.00;;;27.05;41.70
66681;BME280;53575;51.366;12.350;2023-05-22T10:53:22;100063.31;;;27.15;42.73
66681;BME280;53575;51.366;12.350;2023-05-22T10:55:48;100069.44;;;27.29;39.79
66681;BME280;53575;51.366;12.350;2023-05-22T10:58:24;100063.31;;;27.27;40.37
66681;BME280;53575;51.366;12.350;2023-05-22T11:01:07;100072.56;;;27.45;40.33
66681;BME280;53575;51.366;12.350;2023-05-22T11:03:50;100067.69;;;27.50;39.73
66681;BME280;53575;51.366;12.350;2023-05-22T11:09:40;100063.97;;;27.74;39.89
66681;BME280;53575;51.366;12.350;2023-05-22T11:17:26;100066.03;;;27.92;39.05
66681;BME280;53575;51.366;12.350;2023-05-22T11:20:19;100062.09;;;28.08;38.48
66681;BME280;53575;51.366;12.350;2023-05-22T11:22:58;100057.00;;;28.37;38.28
66681;BME280;53575;51.366;12.350;2023-05-22T11:25:23;100065.16;;;28.47;37.92
66681;BME280;53575;51.366;12.350;2023-05-22T11:27:52;100055.91;;;28.28;37.10
66681;BME280;53575;51.366;12.350;2023-05-22T11:30:19;100050.88;;;28.03;38.28
66681;BME280;53575;51.366;12.350;2023-05-22T11:32:45;100057.06;;;27.82;37.38
66681;BME280;53575;51.366;12.350;2023-05-22T11:35:19;100047.25;;;27.70;37.16
66681;BME280;53575;51.366;12.350;2023-05-22T11:37:46;100049.72;;;27.62;37.63
66681;BME280;53575;51.366;12.350;2023-05-22T11:40:14;100047.19;;;27.60;38.16
66681;BME280;53575;51.366;12.350;2023-05-22T11:42:40;100046.72;;;27.44;38.07
66681;BME280;53575;51.366;12.350;2023-05-22T11:45:06;100039.63;;;27.43;38.18
66681;BME280;53575;51.366;12.350;2023-05-22T11:47:32;100038.13;;;27.73;37.05
66681;BME280;53575;51.366;12.350;2023-05-22T11:49:58;100039.31;;;27.91;36.51
66681;BME280;53575;51.366;12.350;2023-05-22T11:52:24;100029.47;;;28.12;35.47
66681;BME280;53575;51.366;12.350;2023-05-22T11:54:52;100031.31;;;28.33;35.51
66681;BME280;53575;51.366;12.350;2023-05-22T11:57:18;100026.78;;;28.45;34.63
66681;BME280;53575;51.366;12.350;2023-05-22T11:59:46;100023.53;;;28.30;34.85
66681;BME280;53575;51.366;12.350;2023-05-22T12:02:12;100029.88;;;28.40;35.38
66681;BME280;53575;51.366;12.350;2023-05-22T12:04:39;100026.56;;;28.57;34.90
66681;BME280;53575;51.366;12.350;2023-05-22T12:07:05;100031.47;;;28.73;34.65
66681;BME280;53575;51.366;12.350;2023-05-22T12:09:31;100027.00;;;28.83;34.54
66681;BME280;53575;51.366;12.350;2023-05-22T12:11:56;100025.56;;;28.79;35.14
66681;BME280;53575;51.366;12.350;2023-05-22T12:14:29;100024.03;;;29.07;33.99
66681;BME280;53575;51.366;12.350;2023-05-22T12:16:58;100024.03;;;29.07;33.54
66681;BME280;53575;51.366;12.350;2023-05-22T12:19:24;100020.75;;;29.04;33.61
66681;BME280;53575;51.366;12.350;2023-05-22T12:21:50;100025.16;;;29.05;34.00
66681;BME280;53575;51.366;12.350;2023-05-22T12:24:16;100017.28;;;29.13;33.95
66681;BME280;53575;51.366;12.350;2023-05-22T12:26:52;100013.56;;;29.04;33.17
66681;BME280;53575;51.366;12.350;2023-05-22T12:29:18;100017.50;;;29.00;35.16
66681;BME280;53575;51.366;12.350;2023-05-22T12:31:45;100016.16;;;29.16;33.51
66681;BME280;53575;51.366;12.350;2023-05-22T12:34:11;100016.75;;;29.29;33.77
66681;BME280;53575;51.366;12.350;2023-05-22T12:36:37;100014.41;;;29.55;32.88
66681;BME280;53575;51.366;12.350;2023-05-22T12:39:12;100009.25;;;29.73;31.99
66681;BME280;53575;51.366;12.350;2023-05-22T12:41:39;100006.09;;;29.68;32.69
66681;BME280;53575;51.366;12.350;2023-05-22T12:44:05;99997.34;;;30.04;32.49
66681;BME280;53575;51.366;12.350;2023-05-22T12:46:31;100001.19;;;30.21;32.04
66681;BME280;53575;51.366;12.350;2023-05-22T12:49:00;99999.34;;;30.22;32.43
66681;BME280;53575;51.366;12.350;2023-05-22T12:51:27;100007.50;;;30.69;31.63
66681;BME280;53575;51.366;12.350;2023-05-22T12:53:59;99989.38;;;31.36;30.12
66681;BME280;53575;51.366;12.350;2023-05-22T12:56:25;99990.00;;;31.93;29.39
66681;BME280;53575;51.366;12.350;2023-05-22T12:58:50;99986.94;;;32.32;28.64
66681;BME280;53575;51.366;12.350;2023-05-22T13:01:16;99978.97;;;33.08;27.93
66681;BME280;53575;51.366;12.350;2023-05-22T13:03:42;99981.03;;;33.57;27.65
66681;BME280;53575;51.366;12.350;2023-05-22T13:06:07;99989.34;;;33.47;27.32
66681;BME280;53575;51.366;12.350;2023-05-22T13:08:33;99972.66;;;34.25;27.35
66681;BME280;53575;51.366;12.350;2023-05-22T13:10:58;99965.44;;;34.81;26.57
66681;BME280;53575;51.366;12.350;2023-05-22T13:13:24;99977.63;;;34.93;25.46